createdAt,value
2023-02-04T00:00:14.390Z,7.45
2023-02-04T00:02:42.125Z,8.13
2023-02-04T00:05:10.381Z,10.52
2023-02-04T00:07:37.509Z,8.82
2023-02-04T00:10:06.148Z,8.82
2023-02-04T00:12:34.532Z,8.35
2023-02-04T00:15:01.609Z,5.57
2023-02-04T00:17:28.553Z,7.15
2023-02-04T00:19:55.492Z,5.25
2023-02-04T00:22:22.249Z,7.18
2023-02-04T00:24:50.646Z,6.25
2023-02-04T00:27:17.680Z,4.30
2023-02-04T00:29:44.688Z,4.70
2023-02-04T00:32:13.268Z,4.32
2023-02-04T00:34:40.171Z,4.20
2023-02-04T00:37:07.368Z,4.97
2023-02-04T00:39:34.294Z,4.80
2023-02-04T00:42:01.231Z,3.13
2023-02-04T00:44:28.249Z,6.03
2023-02-04T00:46:57.479Z,6.03
2023-02-04T00:49:24.626Z,4.38
2023-02-04T00:51:51.783Z,3.75
2023-02-04T00:54:18.893Z,4.72
2023-02-04T00:56:46.410Z,5.03
2023-02-04T00:59:13.572Z,4.20
2023-02-04T01:01:41.209Z,8.90
2023-02-04T01:04:08.115Z,4.32
2023-02-04T01:06:35.707Z,4.25
2023-02-04T01:09:03.851Z,5.13
2023-02-04T01:11:31.180Z,4.40
2023-02-04T01:13:58.278Z,4.75
2023-02-04T01:16:25.517Z,4.55
2023-02-04T01:18:53.326Z,3.15
2023-02-04T01:21:20.051Z,5.05
2023-02-04T01:23:46.795Z,6.07
2023-02-04T01:26:13.854Z,3.85
2023-02-04T01:28:40.652Z,5.78
2023-02-04T01:31:07.618Z,5.28
2023-02-04T01:33:34.370Z,4.18
2023-02-04T01:36:01.174Z,3.00
2023-02-04T01:38:29.545Z,5.00
2023-02-04T01:40:56.960Z,3.42
2023-02-04T01:43:24.329Z,3.80
2023-02-04T01:45:52.076Z,8.63
2023-02-04T01:48:21.868Z,5.00
2023-02-04T01:50:59.995Z,5.20
2023-02-04T01:53:26.917Z,3.60
2023-02-04T01:55:54.198Z,3.25
2023-02-04T01:58:21.145Z,4.70
2023-02-04T02:00:48.096Z,4.93
2023-02-04T02:03:14.983Z,2.80
2023-02-04T02:05:49.544Z,8.40
2023-02-04T02:08:17.553Z,4.13
2023-02-04T02:10:49.244Z,6.22
2023-02-04T02:13:19.032Z,4.22
2023-02-04T02:15:46.593Z,5.60
2023-02-04T02:18:15.863Z,6.78
2023-02-04T02:20:44.978Z,3.90
2023-02-04T02:23:21.300Z,6.05
2023-02-04T02:25:48.967Z,4.88
2023-02-04T02:28:18.597Z,5.53
2023-02-04T02:30:47.398Z,3.92
2023-02-04T02:33:17.359Z,3.47
2023-02-04T02:35:48.485Z,6.97
2023-02-04T02:38:19.902Z,8.82
2023-02-04T02:40:49.292Z,7.15
2023-02-04T02:43:19.607Z,5.97
2023-02-04T02:45:46.673Z,5.65
2023-02-04T02:48:13.576Z,6.13
2023-02-04T02:50:42.141Z,5.18
2023-02-04T02:53:13.695Z,6.07
2023-02-04T02:55:41.785Z,4.80
2023-02-04T02:58:23.655Z,6.03
2023-02-04T03:00:50.708Z,6.72
2023-02-04T03:03:25.117Z,3.55
2023-02-04T03:05:57.962Z,4.47
2023-02-04T03:08:24.841Z,7.18
2023-02-04T03:10:51.998Z,6.07
2023-02-04T03:13:19.429Z,4.05
2023-02-04T03:15:48.231Z,3.30
2023-02-04T03:18:17.561Z,4.95
2023-02-04T03:20:44.832Z,6.53
2023-02-04T03:23:12.591Z,3.33
2023-02-04T03:25:41.583Z,4.18
2023-02-04T03:28:09.425Z,3.60
2023-02-04T03:30:37.000Z,4.40
2023-02-04T03:33:04.078Z,5.00
2023-02-04T03:35:30.860Z,7.57
2023-02-04T03:37:57.696Z,2.63
2023-02-04T03:40:24.609Z,4.43
2023-02-04T03:42:51.391Z,3.70
2023-02-04T03:45:18.360Z,5.03
2023-02-04T03:47:45.120Z,6.07
2023-02-04T03:50:13.974Z,4.22
2023-02-04T03:52:40.766Z,4.28
2023-02-04T03:55:07.838Z,4.35
2023-02-04T03:57:34.753Z,4.90
2023-02-04T04:00:01.635Z,5.55
2023-02-04T04:02:38.884Z,5.35
2023-02-04T04:05:06.522Z,4.53
2023-02-04T04:07:33.560Z,5.15
2023-02-04T04:10:00.440Z,6.18
2023-02-04T04:12:27.286Z,3.75
2023-02-04T04:14:54.069Z,4.50
2023-02-04T04:17:20.940Z,13.45
2023-02-04T04:19:49.596Z,4.47
2023-02-04T04:22:16.378Z,5.13
2023-02-04T04:24:43.359Z,3.40
2023-02-04T04:27:10.310Z,6.47
2023-02-04T04:29:37.105Z,4.93
2023-02-04T04:32:07.640Z,7.32
2023-02-04T04:34:34.492Z,4.95
2023-02-04T04:37:03.691Z,3.67
2023-02-04T04:39:30.526Z,3.33
2023-02-04T04:41:57.440Z,4.57
2023-02-04T04:44:24.433Z,6.00
2023-02-04T04:46:51.462Z,5.28
2023-02-04T04:49:18.275Z,5.30
2023-02-04T04:51:45.015Z,5.82
2023-02-04T04:54:11.829Z,5.45
2023-02-04T04:56:38.663Z,5.20
2023-02-04T04:59:05.758Z,5.65
2023-02-04T05:01:32.789Z,4.70
2023-02-04T05:03:59.757Z,8.73
2023-02-04T05:06:26.772Z,3.67
2023-02-04T05:08:53.814Z,5.57
2023-02-04T05:11:21.390Z,4.03
2023-02-04T05:13:48.379Z,6.80
2023-02-04T05:16:16.170Z,6.22
2023-02-04T05:18:42.967Z,6.68
2023-02-04T05:21:09.828Z,6.63
2023-02-04T05:23:36.738Z,7.75
2023-02-04T05:26:03.595Z,7.18
2023-02-04T05:28:30.368Z,4.85
2023-02-04T05:30:57.149Z,9.13
2023-02-04T05:33:24.241Z,8.43
2023-02-04T05:35:51.054Z,8.57
2023-02-04T05:38:17.791Z,3.95
2023-02-04T05:40:44.762Z,5.55
2023-02-04T05:43:11.554Z,5.82
2023-02-04T05:45:38.328Z,15.13
2023-02-04T05:48:05.429Z,7.85
2023-02-04T05:50:32.444Z,4.78
2023-02-04T05:53:09.432Z,7.03
2023-02-04T05:55:36.435Z,6.43
2023-02-04T05:58:03.214Z,6.18
2023-02-04T06:00:30.396Z,8.18
2023-02-04T06:02:57.277Z,8.23
2023-02-04T06:05:24.271Z,12.35
2023-02-04T06:07:51.064Z,7.05
2023-02-04T06:10:18.245Z,7.32
2023-02-04T06:12:44.961Z,7.88
2023-02-04T06:15:13.080Z,6.72
2023-02-04T06:17:39.972Z,8.50
2023-02-04T06:20:07.825Z,8.18
2023-02-04T06:22:34.961Z,8.48
2023-02-04T06:25:03.011Z,6.95
2023-02-04T06:27:29.849Z,10.38
2023-02-04T06:29:57.459Z,9.27
2023-02-04T06:32:24.420Z,9.18
2023-02-04T06:34:52.361Z,7.90
2023-02-04T06:37:23.474Z,9.20
2023-02-04T06:39:52.073Z,7.32
2023-02-04T06:42:18.881Z,12.82
2023-02-04T06:44:45.762Z,10.43
2023-02-04T06:47:12.661Z,17.25
2023-02-04T06:49:39.496Z,15.02
2023-02-04T06:52:06.435Z,12.07
2023-02-04T06:54:33.139Z,11.50
2023-02-04T06:57:06.642Z,11.20
2023-02-04T06:59:40.724Z,10.77
2023-02-04T07:02:08.174Z,18.92
2023-02-04T07:04:35.471Z,12.95
2023-02-04T07:07:02.387Z,12.48
2023-02-04T07:09:29.781Z,10.18
2023-02-04T07:11:56.643Z,11.50
2023-02-04T07:14:23.627Z,14.43
2023-02-04T07:16:50.358Z,14.18
2023-02-04T07:19:17.074Z,13.20
2023-02-04T07:21:43.881Z,12.43
2023-02-04T07:24:10.598Z,14.32
2023-02-04T07:26:37.452Z,11.98
2023-02-04T07:29:04.159Z,11.88
2023-02-04T07:31:31.358Z,12.20
2023-02-04T07:33:58.249Z,13.82
2023-02-04T07:36:26.360Z,10.57
2023-02-04T07:38:53.249Z,14.85
2023-02-04T07:41:21.156Z,16.48
2023-02-04T07:43:47.978Z,22.38
2023-02-04T07:46:14.867Z,17.30
2023-02-04T07:48:41.627Z,15.13
2023-02-04T07:51:08.462Z,14.23
2023-02-04T07:53:35.254Z,17.48
2023-02-04T07:56:02.043Z,15.95
2023-02-04T07:58:28.776Z,18.80
2023-02-04T08:00:55.597Z,15.68
2023-02-04T08:03:22.426Z,16.48
2023-02-04T08:05:49.262Z,16.30
2023-02-04T08:08:16.209Z,18.02
2023-02-04T08:10:42.969Z,22.17
2023-02-04T08:13:09.701Z,18.13
2023-02-04T08:15:36.657Z,19.25
2023-02-04T08:18:03.616Z,28.70
2023-02-04T08:20:30.964Z,28.10
2023-02-04T08:22:58.100Z,25.60
2023-02-04T08:25:24.967Z,34.90
2023-02-04T08:27:51.689Z,85.85
2023-02-04T08:30:18.608Z,46.00
2023-02-04T08:32:45.341Z,44.38
2023-02-04T08:35:12.853Z,55.55
2023-02-04T08:37:39.803Z,98.13
2023-02-04T08:40:06.953Z,64.38
2023-02-04T08:42:34.889Z,75.80
2023-02-04T08:45:01.670Z,65.53
2023-02-04T08:47:30.847Z,47.72
2023-02-04T08:49:57.677Z,45.10
2023-02-04T08:52:24.447Z,49.15
2023-02-04T08:54:51.227Z,98.47
2023-02-04T08:57:17.973Z,63.85
2023-02-04T08:59:46.045Z,57.90
2023-02-04T09:02:12.911Z,74.90
2023-02-04T09:04:39.671Z,78.03
2023-02-04T09:07:06.484Z,78.45
2023-02-04T09:09:33.279Z,75.55
2023-02-04T09:12:01.751Z,72.88
2023-02-04T09:14:28.585Z,76.95
2023-02-04T09:16:55.280Z,73.25
2023-02-04T09:19:25.645Z,71.13
2023-02-04T09:21:53.918Z,53.67
2023-02-04T09:24:23.697Z,60.67
2023-02-04T09:26:50.651Z,57.03
2023-02-04T09:29:17.527Z,48.78
2023-02-04T09:31:44.435Z,55.33
2023-02-04T09:34:11.263Z,44.35
2023-02-04T09:36:43.228Z,47.83
2023-02-04T09:39:10.395Z,41.17
2023-02-04T09:41:39.997Z,37.50
2023-02-04T09:44:14.258Z,30.95
2023-02-04T09:46:46.149Z,24.25
2023-02-04T09:49:12.973Z,25.13
2023-02-04T09:51:40.006Z,30.38
2023-02-04T09:54:20.824Z,25.50
2023-02-04T09:56:48.768Z,25.27
2023-02-04T09:59:19.033Z,26.30
2023-02-04T10:01:56.266Z,20.77
2023-02-04T10:04:23.517Z,16.15
2023-02-04T10:06:50.599Z,15.10
2023-02-04T10:09:18.337Z,11.32
2023-02-04T10:11:48.431Z,13.95
2023-02-04T10:14:19.804Z,14.95
2023-02-04T10:16:59.600Z,15.25
2023-02-04T10:19:28.445Z,10.85
2023-02-04T10:21:55.900Z,9.68
2023-02-04T10:24:30.362Z,13.27
2023-02-04T10:27:16.193Z,20.17
2023-02-04T10:29:44.060Z,17.83
2023-02-04T10:32:34.056Z,11.90
2023-02-04T10:35:02.899Z,12.45
2023-02-04T10:37:30.839Z,10.30
2023-02-04T10:39:58.160Z,11.30
2023-02-04T10:42:27.815Z,14.20
2023-02-04T10:44:55.234Z,11.93
2023-02-04T10:47:27.273Z,14.70
2023-02-04T10:50:00.446Z,9.05
2023-02-04T10:52:36.308Z,10.95
2023-02-04T10:55:07.457Z,16.08
2023-02-04T10:57:39.022Z,9.65
2023-02-04T11:00:15.237Z,10.98
2023-02-04T11:02:46.203Z,15.45
2023-02-04T11:07:41.634Z,12.35
2023-02-04T11:10:14.038Z,9.50
2023-02-04T11:12:44.199Z,9.05
2023-02-04T11:15:41.211Z,7.30
2023-02-04T11:18:11.413Z,8.45
2023-02-04T11:20:40.127Z,8.07
2023-02-04T11:23:26.005Z,5.50
2023-02-04T11:26:07.831Z,7.45
2023-02-04T11:28:48.525Z,9.02
2023-02-04T11:31:27.158Z,6.05
2023-02-04T11:34:13.979Z,8.38
2023-02-04T11:37:02.703Z,9.27
2023-02-04T11:39:36.055Z,5.28
2023-02-04T11:42:03.948Z,4.72
2023-02-04T11:44:30.908Z,5.43
2023-02-04T11:46:58.752Z,7.68
2023-02-04T11:49:27.137Z,7.22
2023-02-04T11:52:10.860Z,6.60
2023-02-04T11:54:37.951Z,8.52
2023-02-04T11:57:04.841Z,7.47
2023-02-04T11:59:32.048Z,4.60
2023-02-04T12:02:26.408Z,8.82
2023-02-04T12:04:58.227Z,7.60
2023-02-04T12:07:28.448Z,9.77
2023-02-04T12:09:56.308Z,7.55
2023-02-04T12:12:31.007Z,7.22
2023-02-04T12:15:17.483Z,9.27
2023-02-04T12:17:46.028Z,6.97
2023-02-04T12:20:15.806Z,10.07
2023-02-04T12:22:42.684Z,7.30
2023-02-04T12:25:09.757Z,9.25
2023-02-04T12:27:36.643Z,6.88
2023-02-04T12:30:03.682Z,8.50
2023-02-04T12:32:30.695Z,7.80
2023-02-04T12:34:57.473Z,7.72
2023-02-04T12:37:24.368Z,8.43
2023-02-04T12:39:51.296Z,9.07
2023-02-04T12:42:18.103Z,5.38
2023-02-04T12:44:44.863Z,11.10
2023-02-04T12:47:11.740Z,7.47
2023-02-04T12:49:38.876Z,9.43
2023-02-04T12:52:06.454Z,6.03
2023-02-04T12:54:33.502Z,7.68
2023-02-04T12:57:02.792Z,5.35
2023-02-04T12:59:31.551Z,9.15
2023-02-04T13:01:59.022Z,7.40
2023-02-04T13:04:25.794Z,8.80
2023-02-04T13:06:57.009Z,14.70
2023-02-04T13:09:24.032Z,11.85
2023-02-04T13:11:50.890Z,11.23
2023-02-04T13:14:17.801Z,7.70
2023-02-04T13:16:44.788Z,6.93
2023-02-04T13:19:11.791Z,8.25
2023-02-04T13:21:41.204Z,4.22
2023-02-04T13:24:08.626Z,9.13
2023-02-04T13:26:35.579Z,5.70
2023-02-04T13:29:02.925Z,8.57
2023-02-04T13:31:29.959Z,9.20
2023-02-04T13:33:56.994Z,9.02
2023-02-04T13:36:23.940Z,7.93
2023-02-04T13:38:53.289Z,7.88
2023-02-04T13:47:18.956Z,6.15
2023-02-04T13:49:45.784Z,5.93
2023-02-04T13:52:12.465Z,21.20
2023-02-04T13:54:39.302Z,9.77
2023-02-04T13:57:06.533Z,7.45
2023-02-04T13:59:33.485Z,6.20
2023-02-04T14:02:00.291Z,10.82
2023-02-04T14:04:27.253Z,9.10
2023-02-04T14:06:55.198Z,14.63
2023-02-04T14:09:22.994Z,11.38
2023-02-04T14:11:49.803Z,8.48
2023-02-04T14:14:16.659Z,10.63
2023-02-04T14:16:43.589Z,5.88
2023-02-04T14:19:10.500Z,13.27
2023-02-04T14:21:37.409Z,10.13
2023-02-04T14:24:04.580Z,7.05
2023-02-04T14:26:31.369Z,9.32
2023-02-04T14:28:58.208Z,8.38
2023-02-04T14:31:25.039Z,10.80
2023-02-04T14:33:52.022Z,6.70
2023-02-04T14:36:18.742Z,5.72
2023-02-04T14:38:45.594Z,6.40
2023-02-04T14:41:16.379Z,6.40
2023-02-04T14:46:09.816Z,7.60
2023-02-04T14:48:36.879Z,8.88
2023-02-04T14:51:04.649Z,7.93
2023-02-04T14:53:31.461Z,9.82
2023-02-04T14:55:58.344Z,9.35
2023-02-04T14:58:27.878Z,10.73
2023-02-04T15:00:55.034Z,10.60
2023-02-04T15:03:22.031Z,5.45
2023-02-04T15:05:48.758Z,5.90
2023-02-04T15:08:15.696Z,9.60
2023-02-04T15:10:42.539Z,12.75
2023-02-04T15:13:09.511Z,10.68
2023-02-04T15:15:36.278Z,10.85
2023-02-04T15:18:03.161Z,7.75
2023-02-04T15:20:29.927Z,10.27
2023-02-04T15:22:57.479Z,11.50
2023-02-04T15:25:27.312Z,11.35
2023-02-04T15:27:54.230Z,7.82
2023-02-04T15:30:21.111Z,8.85
2023-02-04T15:32:47.966Z,6.72
2023-02-04T15:35:15.068Z,12.15
2023-02-04T15:37:41.941Z,9.23
2023-02-04T15:40:10.539Z,10.32
2023-02-04T15:42:37.416Z,7.72
2023-02-04T15:45:04.926Z,10.23
2023-02-04T15:47:31.836Z,18.80
2023-02-04T15:49:58.684Z,22.75
2023-02-04T15:52:26.099Z,23.80
2023-02-04T15:54:53.697Z,15.00
2023-02-04T15:57:20.509Z,16.20
2023-02-04T15:59:47.229Z,9.13
2023-02-04T16:02:14.061Z,10.88
2023-02-04T16:04:41.673Z,13.38
2023-02-04T16:07:08.611Z,12.23
2023-02-04T16:09:35.850Z,16.85
2023-02-04T16:12:03.628Z,10.93
2023-02-04T16:14:30.429Z,12.80
2023-02-04T16:16:57.603Z,17.05
2023-02-04T16:19:24.463Z,14.07
2023-02-04T16:21:51.264Z,15.25
2023-02-04T16:24:19.576Z,16.33
2023-02-04T16:26:46.399Z,15.10
2023-02-04T16:29:13.381Z,12.05
2023-02-04T16:31:40.279Z,21.65
2023-02-04T16:34:07.203Z,32.67
2023-02-04T16:36:33.934Z,37.22
2023-02-04T16:39:02.869Z,35.63
2023-02-04T16:41:29.771Z,32.45
2023-02-04T16:43:56.693Z,31.33
2023-02-04T16:46:23.634Z,31.88
2023-02-04T16:48:50.471Z,35.80
2023-02-04T16:51:18.041Z,39.05
2023-02-04T16:53:45.012Z,62.40
2023-02-04T16:56:11.752Z,85.72
2023-02-04T16:58:40.026Z,59.85
2023-02-04T17:01:07.519Z,80.88
2023-02-04T17:03:34.595Z,96.25
2023-02-04T17:06:01.974Z,88.22
2023-02-04T17:08:29.571Z,83.55
2023-02-04T17:11:15.669Z,78.32
2023-02-04T17:13:42.649Z,67.15
2023-02-04T17:16:09.400Z,57.92
2023-02-04T17:18:36.309Z,56.67
2023-02-04T17:21:04.737Z,46.80
2023-02-04T17:23:32.231Z,42.00
2023-02-04T17:25:59.296Z,36.58
2023-02-04T17:28:26.347Z,32.08
2023-02-04T17:30:53.874Z,32.90
2023-02-04T17:33:21.104Z,23.25
2023-02-04T17:35:48.108Z,30.55
2023-02-04T17:38:15.047Z,26.10
2023-02-04T17:40:42.806Z,24.08
2023-02-04T17:43:09.892Z,18.45
2023-02-04T17:45:37.120Z,22.33
2023-02-04T17:48:08.393Z,23.73
2023-02-04T17:53:04.291Z,22.05
2023-02-04T17:55:32.984Z,29.33
2023-02-04T17:58:02.185Z,27.48
2023-02-04T18:00:30.977Z,19.92
2023-02-04T18:02:58.406Z,22.65
2023-02-04T18:05:28.406Z,21.58
2023-02-04T18:08:34.220Z,23.27
2023-02-04T18:11:00.977Z,19.40
2023-02-04T18:13:35.250Z,22.23
2023-02-04T18:16:11.648Z,20.30
2023-02-04T18:18:40.258Z,21.98
2023-02-04T18:21:22.476Z,19.63
2023-02-04T18:24:30.675Z,17.80
2023-02-04T18:27:02.039Z,15.15
2023-02-04T18:29:34.262Z,14.98
2023-02-04T18:32:12.248Z,17.00
2023-02-04T18:34:43.941Z,18.02
2023-02-04T18:37:37.681Z,17.08
2023-02-04T18:40:11.231Z,22.20
2023-02-04T18:42:40.688Z,22.23
2023-02-04T18:45:20.150Z,26.30
2023-02-04T18:47:47.292Z,46.72
2023-02-04T18:50:20.163Z,36.63
2023-02-04T18:52:50.324Z,34.42
2023-02-04T18:55:32.353Z,47.22
2023-02-04T18:58:19.152Z,40.67
2023-02-04T19:01:24.750Z,38.88
2023-02-04T19:03:53.570Z,31.35
2023-02-04T19:06:42.659Z,37.95
2023-02-04T19:09:17.158Z,31.95
2023-02-04T19:11:48.921Z,33.42
2023-02-04T19:14:42.285Z,26.83
2023-02-04T19:17:21.448Z,41.40
2023-02-04T19:20:17.746Z,48.95
2023-02-04T19:22:46.811Z,46.80
2023-02-04T19:25:22.716Z,42.75
2023-02-04T19:27:57.612Z,39.75
2023-02-04T19:30:34.695Z,45.40
2023-02-04T19:33:15.136Z,47.42
2023-02-04T19:35:48.056Z,38.50
2023-02-04T19:38:46.161Z,35.08
2023-02-04T19:41:50.628Z,74.72
2023-02-04T19:44:34.170Z,59.80
2023-02-04T19:47:43.124Z,66.88
2023-02-04T19:50:12.764Z,68.85
2023-02-04T19:52:54.671Z,49.00
2023-02-04T19:55:28.457Z,47.42
2023-02-04T19:58:00.552Z,56.47
2023-02-04T20:00:38.784Z,54.63
2023-02-04T20:03:35.710Z,72.85
2023-02-04T20:06:31.859Z,57.60
2023-02-04T20:11:35.504Z,82.03
2023-02-04T20:14:14.676Z,64.75
2023-02-04T20:16:44.574Z,51.40
2023-02-04T20:19:17.667Z,50.75
2023-02-04T20:22:13.737Z,78.75
2023-02-04T20:27:30.284Z,47.72
2023-02-04T20:30:01.299Z,51.70
2023-02-04T20:32:30.296Z,51.83
2023-02-04T20:35:13.769Z,40.85
2023-02-04T20:37:43.513Z,41.50
2023-02-04T20:40:25.663Z,31.92
2023-02-04T20:42:59.983Z,32.80
2023-02-04T20:45:48.815Z,39.00
2023-02-04T20:48:15.704Z,33.60
2023-02-04T20:50:54.005Z,30.63
2023-02-04T20:53:40.906Z,23.17
2023-02-04T20:56:31.863Z,23.92
2023-02-04T20:59:27.609Z,20.52
2023-02-04T21:01:56.152Z,26.02
2023-02-04T21:04:37.004Z,22.90
2023-02-04T21:07:17.118Z,21.33
2023-02-04T21:09:44.218Z,21.08
2023-02-04T21:12:11.423Z,20.05
2023-02-04T21:14:38.458Z,25.77
2023-02-04T21:17:05.471Z,65.78
2023-02-04T21:19:33.970Z,37.67
2023-02-04T21:22:01.918Z,27.80
2023-02-04T21:24:31.709Z,31.35
2023-02-04T21:26:59.016Z,34.90
2023-02-04T21:29:26.330Z,29.00
2023-02-04T21:31:54.682Z,24.88
2023-02-04T21:34:22.056Z,21.48
2023-02-04T21:36:48.976Z,30.80
2023-02-04T21:39:15.890Z,21.25
2023-02-04T21:41:42.809Z,25.00
2023-02-04T21:44:09.859Z,23.15
2023-02-04T21:46:36.851Z,18.00
2023-02-04T21:49:05.076Z,25.85
2023-02-04T21:51:32.119Z,27.52
2023-02-04T21:54:00.023Z,27.33
2023-02-04T21:56:27.354Z,25.67
2023-02-04T21:58:54.403Z,21.30
2023-02-04T22:01:21.258Z,29.98
2023-02-04T22:03:48.130Z,23.70
2023-02-04T22:06:15.169Z,25.95
2023-02-04T22:08:41.994Z,18.95
2023-02-04T22:11:08.912Z,25.15
2023-02-04T22:13:35.807Z,25.40
2023-02-04T22:16:02.663Z,27.88
2023-02-04T22:18:29.936Z,29.05
2023-02-04T22:20:56.792Z,22.60
2023-02-04T22:23:23.795Z,29.70
2023-02-04T22:25:50.737Z,25.92
2023-02-04T22:28:17.651Z,34.85
2023-02-04T22:30:44.502Z,32.53
2023-02-04T22:33:14.108Z,29.67
2023-02-04T22:35:41.065Z,31.30
2023-02-04T22:38:07.878Z,28.67
2023-02-04T22:40:34.725Z,28.92
2023-02-04T22:43:01.798Z,24.58
2023-02-04T22:45:28.678Z,27.23
2023-02-04T22:47:55.784Z,30.15
2023-02-04T22:50:22.578Z,25.00
2023-02-04T22:52:49.438Z,27.33
2023-02-04T22:55:16.317Z,28.65
2023-02-04T22:57:43.184Z,25.98
2023-02-04T23:00:11.138Z,27.20
2023-02-04T23:02:37.871Z,27.35
2023-02-04T23:05:05.446Z,26.52
2023-02-04T23:07:33.197Z,22.65
2023-02-04T23:10:00.620Z,23.85
2023-02-04T23:12:27.534Z,21.85
2023-02-04T23:14:57.883Z,23.73
2023-02-04T23:17:27.303Z,24.92
2023-02-04T23:19:57.233Z,23.33
2023-02-04T23:22:24.137Z,21.48
2023-02-04T23:24:51.100Z,21.85
2023-02-04T23:27:17.946Z,16.45
2023-02-04T23:29:44.854Z,17.63
2023-02-04T23:32:12.127Z,20.85
2023-02-04T23:34:38.959Z,22.70
2023-02-04T23:37:05.851Z,19.88
2023-02-04T23:39:36.042Z,23.33
2023-02-04T23:42:03.289Z,22.20
2023-02-04T23:44:30.148Z,30.80
2023-02-04T23:46:59.738Z,28.90
2023-02-04T23:49:26.523Z,22.88
2023-02-04T23:51:54.708Z,25.80
2023-02-04T23:54:21.509Z,27.08
2023-02-04T23:56:55.857Z,21.38
2023-02-04T23:59:22.729Z,21.23
